X  Κλείσε Στοιχεία αεροπορικών μετεωρολογικών δεδομένων METAR     LGRX Patras Araxos Agamemnon Airport
θερμοκρασία
20°C θερμοκρασία
10°C Σημείο δρόσου
53% Υγρασία



Ανεμος
16 KM/H
10 MPH
4 M/S
9 KTS



90°
A
Τρέχουσες συνθήκες

Μερικώς συννεφιασμένος Μερικώς συννεφιασμένος
πίεση 1015.92 (hPa) - 30 (inHg)
Ορατότητα 6.2 (μίλι) - 10 (km)
Aεροδρόμιο
Κωδικός αεροδρομίου LGRX

Τοποθεσία: Patras Araxos Agamemnon Airport
Απόσταση: 16 (km)

Metar:
LGRX 190150Z 09009KT 9999 FEW020 SCT080 20/10 Q1016

ώρα: 19-05-2022 04:50 EEST